createdAt,value
2018-12-31T00:00:39.892Z,4.3
2018-12-31T00:01:42.232Z,4.3
2018-12-31T00:02:44.271Z,4.4
2018-12-31T00:03:46.302Z,4.4
2018-12-31T00:04:48.349Z,4.4
2018-12-31T00:05:50.379Z,4.4
2018-12-31T00:06:52.478Z,4.4
2018-12-31T00:07:54.516Z,4.4
2018-12-31T00:08:56.569Z,4.4
2018-12-31T00:09:58.621Z,4.4
2018-12-31T00:11:00.670Z,4.4
2018-12-31T00:12:02.711Z,4.4
2018-12-31T00:13:05.158Z,4.5
2018-12-31T00:14:07.238Z,4.5
2018-12-31T00:15:09.267Z,4.5
2018-12-31T00:16:11.308Z,4.5
2018-12-31T00:17:13.370Z,4.5
2018-12-31T00:18:15.405Z,4.5
2018-12-31T00:19:17.471Z,4.5
2018-12-31T00:20:19.518Z,4.5
2018-12-31T00:21:21.557Z,4.5
2018-12-31T00:22:23.610Z,4.5
2018-12-31T00:23:25.671Z,4.5
2018-12-31T00:24:27.736Z,4.5
2018-12-31T00:25:29.786Z,4.6
2018-12-31T00:26:31.841Z,4.6
2018-12-31T00:27:33.896Z,4.6
2018-12-31T00:28:36.339Z,4.6
2018-12-31T00:29:38.653Z,4.6
2018-12-31T00:30:40.980Z,4.6
2018-12-31T00:31:43.030Z,4.6
2018-12-31T00:32:45.071Z,4.6
2018-12-31T00:33:47.111Z,4.7
2018-12-31T00:34:49.171Z,4.7
2018-12-31T00:35:51.233Z,4.7
2018-12-31T00:36:53.685Z,4.7
2018-12-31T00:37:56.031Z,4.7
2018-12-31T00:38:58.105Z,4.7
2018-12-31T00:40:00.192Z,4.8
2018-12-31T00:41:03.340Z,4.8
2018-12-31T00:42:05.466Z,4.8
2018-12-31T00:43:07.517Z,4.8
2018-12-31T00:44:09.594Z,4.8
2018-12-31T00:45:11.650Z,4.8
2018-12-31T00:46:13.705Z,4.8
2018-12-31T00:47:15.754Z,4.8
2018-12-31T00:48:18.175Z,4.8
2018-12-31T00:49:20.215Z,4.8
2018-12-31T00:50:22.264Z,4.8
2018-12-31T00:51:24.311Z,4.8
2018-12-31T00:52:26.365Z,4.8
2018-12-31T00:53:28.397Z,4.9
2018-12-31T00:54:30.469Z,4.9
2018-12-31T00:55:32.520Z,4.9
2018-12-31T00:56:34.573Z,4.9
2018-12-31T00:57:36.629Z,4.9
2018-12-31T00:58:38.670Z,4.9
2018-12-31T00:59:40.998Z,4.9
2018-12-31T01:00:43.033Z,4.9
2018-12-31T01:01:45.075Z,4.9
2018-12-31T01:02:47.128Z,4.9
2018-12-31T01:03:49.181Z,4.9
2018-12-31T01:04:51.244Z,4.9
2018-12-31T01:05:53.303Z,4.9
2018-12-31T01:06:55.341Z,4.9
2018-12-31T01:07:57.386Z,4.9
2018-12-31T01:08:59.810Z,4.9
2018-12-31T01:10:02.156Z,5
2018-12-31T01:11:04.197Z,4.9
2018-12-31T01:12:06.250Z,5
2018-12-31T01:13:08.302Z,5
2018-12-31T01:14:10.369Z,5
2018-12-31T01:15:12.428Z,5
2018-12-31T01:16:14.463Z,5
2018-12-31T01:17:16.522Z,4.9
2018-12-31T01:18:18.567Z,5
2018-12-31T01:19:20.616Z,4.9
2018-12-31T01:20:22.679Z,5
2018-12-31T01:21:24.735Z,5
2018-12-31T01:22:26.844Z,5
2018-12-31T01:23:28.893Z,5
2018-12-31T01:24:30.932Z,5
2018-12-31T01:25:32.980Z,5
2018-12-31T01:26:35.031Z,5
2018-12-31T01:27:37.106Z,5
2018-12-31T01:28:39.146Z,5
2018-12-31T01:29:41.194Z,5
2018-12-31T01:30:43.219Z,5
2018-12-31T01:31:45.279Z,5
2018-12-31T01:32:47.341Z,5
2018-12-31T01:33:49.404Z,5
2018-12-31T01:34:51.448Z,5
2018-12-31T01:35:53.503Z,5
2018-12-31T01:36:55.937Z,5
2018-12-31T01:37:57.975Z,5
2018-12-31T01:39:00.024Z,5
2018-12-31T01:40:02.450Z,5
2018-12-31T01:41:04.493Z,5.1
2018-12-31T01:42:06.535Z,5
2018-12-31T01:43:08.619Z,5.1
2018-12-31T01:44:10.681Z,5.1
2018-12-31T01:45:12.728Z,5.1
2018-12-31T01:46:15.074Z,5.1
2018-12-31T01:47:17.486Z,5.1
2018-12-31T01:48:19.555Z,5.1
2018-12-31T01:49:21.596Z,5.1
2018-12-31T01:50:23.637Z,5.1
2018-12-31T01:51:25.682Z,5.1
2018-12-31T01:52:27.734Z,5.1
2018-12-31T01:53:29.812Z,5.1
2018-12-31T01:54:31.957Z,5.1
2018-12-31T01:55:34.016Z,5.1
2018-12-31T01:56:36.095Z,5.1
2018-12-31T01:57:38.154Z,5.1
2018-12-31T01:58:40.203Z,5.1
2018-12-31T01:59:42.241Z,5.1
2018-12-31T02:00:44.317Z,5.1
2018-12-31T02:01:46.345Z,5.1
2018-12-31T02:02:48.397Z,5.1
2018-12-31T02:03:50.447Z,5.1
2018-12-31T02:04:52.519Z,5.1
2018-12-31T02:05:54.551Z,5.2
2018-12-31T02:06:56.609Z,5.2
2018-12-31T02:07:58.665Z,5.1
2018-12-31T02:09:00.715Z,5.1
2018-12-31T02:10:03.435Z,5.1
2018-12-31T02:11:05.757Z,5.1
2018-12-31T02:12:08.469Z,5.1
2018-12-31T02:13:10.508Z,5.1
2018-12-31T02:14:12.572Z,5.1
2018-12-31T02:15:14.603Z,5.2
2018-12-31T02:16:16.654Z,5.2
2018-12-31T02:17:18.717Z,5.2
2018-12-31T02:18:20.779Z,5.2
2018-12-31T02:19:23.114Z,5.2
2018-12-31T02:20:25.152Z,5.2
2018-12-31T02:21:27.181Z,5.2
2018-12-31T02:22:29.217Z,5.2
2018-12-31T02:23:31.283Z,5.2
2018-12-31T02:24:33.360Z,5.2
2018-12-31T02:25:35.409Z,5.2
2018-12-31T02:26:37.471Z,5.2
2018-12-31T02:27:39.543Z,5.2
2018-12-31T02:28:41.905Z,5.2
2018-12-31T02:29:43.958Z,5.2
2018-12-31T02:30:46.375Z,5.2
2018-12-31T02:31:48.832Z,5.2
2018-12-31T02:32:50.905Z,5.2
2018-12-31T02:33:52.964Z,5.2
2018-12-31T02:34:55.306Z,5.2
2018-12-31T02:35:57.444Z,5.3
2018-12-31T02:36:59.489Z,5.3
2018-12-31T02:38:01.551Z,5.2
2018-12-31T02:39:03.614Z,5.3
2018-12-31T02:40:05.672Z,5.2
2018-12-31T02:41:07.737Z,5.2
2018-12-31T02:42:10.362Z,5.2
2018-12-31T02:43:12.405Z,5.3
2018-12-31T02:44:14.441Z,5.3
2018-12-31T02:45:16.564Z,5.3
2018-12-31T02:46:18.612Z,5.3
2018-12-31T02:47:21.318Z,5.3
2018-12-31T02:48:23.362Z,5.3
2018-12-31T02:49:25.422Z,5.3
2018-12-31T02:50:27.834Z,5.3
2018-12-31T02:51:30.551Z,5.3
2018-12-31T02:52:32.598Z,5.3
2018-12-31T02:53:34.666Z,5.3
2018-12-31T02:54:36.722Z,5.3
2018-12-31T02:55:38.773Z,5.3
2018-12-31T02:56:40.836Z,5.3
2018-12-31T02:57:42.898Z,5.3
2018-12-31T02:58:44.945Z,5.3
2018-12-31T02:59:47.267Z,5.3
2018-12-31T03:00:49.317Z,5.3
2018-12-31T03:01:51.363Z,5.3
2018-12-31T03:02:53.497Z,5.3
2018-12-31T03:03:55.537Z,5.3
2018-12-31T03:04:57.587Z,5.3
2018-12-31T03:05:59.634Z,5.3
2018-12-31T03:07:02.071Z,5.3
2018-12-31T03:08:04.418Z,5.3
2018-12-31T03:09:06.472Z,5.3
2018-12-31T03:10:08.870Z,5.3
2018-12-31T03:11:11.212Z,5.4
2018-12-31T03:12:13.563Z,5.4
2018-12-31T03:13:15.597Z,5.4
2018-12-31T03:14:17.923Z,5.4
2018-12-31T03:15:19.959Z,5.4
2018-12-31T03:16:22.001Z,5.4
2018-12-31T03:17:24.057Z,5.4
2018-12-31T03:18:26.383Z,5.4
2018-12-31T03:19:28.458Z,5.4
2018-12-31T03:20:30.512Z,5.4
2018-12-31T03:21:32.599Z,5.4
2018-12-31T03:22:34.685Z,5.4
2018-12-31T03:23:36.724Z,5.4
2018-12-31T03:24:39.070Z,5.4
2018-12-31T03:25:41.509Z,5.4
2018-12-31T03:26:43.840Z,5.4
2018-12-31T03:27:45.966Z,5.4
2018-12-31T03:28:48.292Z,5.4
2018-12-31T03:29:50.352Z,5.4
2018-12-31T03:30:53.091Z,5.4
2018-12-31T03:31:55.489Z,5.4
2018-12-31T03:32:58.286Z,5.4
2018-12-31T03:34:00.329Z,5.4
2018-12-31T03:35:02.405Z,5.4
2018-12-31T03:36:05.119Z,5.4
2018-12-31T03:37:07.460Z,5.4
2018-12-31T03:38:09.532Z,5.4
2018-12-31T03:39:11.558Z,5.4
2018-12-31T03:40:13.990Z,5.4
2018-12-31T03:41:16.709Z,5.5
2018-12-31T03:42:19.050Z,5.4
2018-12-31T03:43:21.114Z,5.5
2018-12-31T03:44:23.794Z,5.5
2018-12-31T03:45:26.233Z,5.5
2018-12-31T03:46:28.289Z,5.5
2018-12-31T03:47:30.616Z,5.5
2018-12-31T03:48:32.647Z,5.5
2018-12-31T03:49:35.076Z,5.5
2018-12-31T03:50:37.144Z,5.5
2018-12-31T03:51:39.272Z,5.5
2018-12-31T03:52:41.327Z,5.5
2018-12-31T03:53:43.419Z,5.5
2018-12-31T03:54:45.469Z,5.6
2018-12-31T03:55:47.513Z,5.6
2018-12-31T03:56:51.496Z,5.6
2018-12-31T03:57:53.832Z,5.6
2018-12-31T03:58:55.871Z,5.6
2018-12-31T03:59:57.935Z,5.6
2018-12-31T04:00:59.956Z,5.6
2018-12-31T04:02:02.588Z,5.6
2018-12-31T04:03:04.669Z,5.6
2018-12-31T04:04:07.006Z,5.6
2018-12-31T04:05:09.361Z,5.6
2018-12-31T04:06:11.428Z,5.6
2018-12-31T04:07:13.742Z,5.6
2018-12-31T04:08:15.805Z,5.6
2018-12-31T04:09:17.870Z,5.7
2018-12-31T04:10:19.914Z,5.7
2018-12-31T04:11:21.964Z,5.7
2018-12-31T04:12:24.577Z,5.7
2018-12-31T04:13:26.615Z,5.7
2018-12-31T04:14:28.677Z,5.7
2018-12-31T04:15:31.111Z,5.7
2018-12-31T04:16:33.168Z,5.7
2018-12-31T04:17:35.204Z,5.7
2018-12-31T04:18:37.239Z,5.7
2018-12-31T04:19:39.578Z,5.7
2018-12-31T04:20:41.629Z,5.7
2018-12-31T04:21:43.687Z,5.7
2018-12-31T04:22:46.045Z,5.7
2018-12-31T04:23:48.105Z,5.7
2018-12-31T04:24:50.432Z,5.7
2018-12-31T04:25:52.765Z,5.7
2018-12-31T04:26:54.812Z,5.7
2018-12-31T04:27:56.874Z,5.7
2018-12-31T04:28:58.937Z,5.7
2018-12-31T04:30:01.113Z,5.8
2018-12-31T04:31:03.461Z,5.8
2018-12-31T04:32:05.790Z,5.8
2018-12-31T04:33:07.848Z,5.8
2018-12-31T04:34:09.885Z,5.8
2018-12-31T04:35:12.491Z,5.8
2018-12-31T04:36:14.538Z,5.8
2018-12-31T04:37:16.573Z,5.8
2018-12-31T04:38:18.621Z,5.8
2018-12-31T04:39:20.675Z,5.8
2018-12-31T04:40:23.127Z,5.8
2018-12-31T04:41:25.999Z,5.8
2018-12-31T04:42:28.705Z,5.8
2018-12-31T04:43:30.831Z,5.8
2018-12-31T04:44:33.253Z,5.8
2018-12-31T04:45:35.306Z,5.8
2018-12-31T04:46:37.641Z,5.8
2018-12-31T04:47:42.058Z,5.8
2018-12-31T04:48:44.129Z,5.8
2018-12-31T04:49:46.475Z,5.8
2018-12-31T04:50:48.701Z,5.9
2018-12-31T04:51:51.044Z,5.8
2018-12-31T04:52:53.101Z,5.8
2018-12-31T04:53:55.162Z,5.9
2018-12-31T04:54:57.200Z,5.9
2018-12-31T04:55:59.259Z,5.9
2018-12-31T04:57:01.713Z,5.9
2018-12-31T04:58:03.832Z,5.9
2018-12-31T04:59:05.881Z,5.9
2018-12-31T05:00:07.957Z,5.9
2018-12-31T05:01:10.005Z,5.9
2018-12-31T05:02:12.057Z,5.9
2018-12-31T05:03:14.105Z,5.9
2018-12-31T05:04:16.159Z,5.9
2018-12-31T05:05:18.572Z,5.9
2018-12-31T05:06:20.909Z,5.9
2018-12-31T05:07:23.252Z,5.9
2018-12-31T05:08:25.299Z,5.9
2018-12-31T05:09:27.753Z,5.9
2018-12-31T05:10:30.580Z,5.9
2018-12-31T05:11:32.953Z,5.9
2018-12-31T05:12:35.289Z,5.9
2018-12-31T05:13:37.343Z,5.9
2018-12-31T05:14:39.389Z,5.9
2018-12-31T05:15:41.700Z,5.9
2018-12-31T05:16:43.758Z,5.9
2018-12-31T05:17:45.818Z,5.9
2018-12-31T05:18:47.866Z,5.9
2018-12-31T05:19:49.927Z,5.9
2018-12-31T05:20:51.969Z,5.9
2018-12-31T05:21:54.049Z,5.9
2018-12-31T05:22:56.108Z,5.9
2018-12-31T05:23:58.464Z,5.9
2018-12-31T05:25:00.663Z,5.9
2018-12-31T05:26:02.718Z,5.9
2018-12-31T05:27:04.768Z,5.9
2018-12-31T05:28:06.943Z,5.9
2018-12-31T05:29:08.994Z,5.9
2018-12-31T05:30:11.334Z,5.9
2018-12-31T05:31:13.648Z,5.9
2018-12-31T05:32:15.712Z,5.9
2018-12-31T05:33:17.860Z,5.9
2018-12-31T05:34:20.202Z,5.9
2018-12-31T05:35:22.253Z,6
2018-12-31T05:36:24.281Z,6
2018-12-31T05:37:26.713Z,6
2018-12-31T05:38:28.762Z,6
2018-12-31T05:39:30.821Z,6
2018-12-31T05:40:32.892Z,6
2018-12-31T05:41:34.980Z,6
2018-12-31T05:42:37.018Z,6
2018-12-31T05:43:39.747Z,6
2018-12-31T05:44:41.810Z,5.9
2018-12-31T05:45:43.873Z,6
2018-12-31T05:46:45.922Z,6
2018-12-31T05:47:47.960Z,6
2018-12-31T05:48:50.008Z,6
2018-12-31T05:49:52.074Z,6
2018-12-31T05:50:54.102Z,6
2018-12-31T05:51:56.430Z,5.9
2018-12-31T05:52:58.765Z,5.9
2018-12-31T05:54:01.082Z,6
2018-12-31T05:55:03.141Z,6
2018-12-31T05:56:05.182Z,6
2018-12-31T05:57:07.305Z,6
2018-12-31T05:58:09.360Z,6
2018-12-31T05:59:11.453Z,6
2018-12-31T06:00:13.781Z,6
2018-12-31T06:01:15.825Z,6
2018-12-31T06:02:17.955Z,6
2018-12-31T06:03:19.988Z,6
2018-12-31T06:04:22.045Z,6
2018-12-31T06:05:24.469Z,6
2018-12-31T06:06:26.516Z,6
2018-12-31T06:07:28.576Z,6
2018-12-31T06:08:30.608Z,6
2018-12-31T06:09:32.682Z,6
2018-12-31T06:10:34.742Z,6
2018-12-31T06:11:36.811Z,6
2018-12-31T06:12:38.840Z,6
2018-12-31T06:13:40.921Z,6
2018-12-31T06:14:42.963Z,6
2018-12-31T06:15:45.004Z,6
2018-12-31T06:16:47.051Z,6
2018-12-31T06:17:49.185Z,6
2018-12-31T06:18:51.226Z,6
2018-12-31T06:19:53.254Z,6
2018-12-31T06:20:55.283Z,6
2018-12-31T06:21:57.611Z,6
2018-12-31T06:22:59.667Z,6
2018-12-31T06:24:01.708Z,6
2018-12-31T06:25:04.207Z,6
2018-12-31T06:26:06.258Z,6
2018-12-31T06:27:08.310Z,6
2018-12-31T06:28:10.351Z,6
2018-12-31T06:29:12.379Z,6
2018-12-31T06:30:14.421Z,6
2018-12-31T06:31:16.486Z,6
2018-12-31T06:32:18.530Z,6
2018-12-31T06:33:20.965Z,6
2018-12-31T06:34:23.285Z,6
2018-12-31T06:35:25.637Z,6
2018-12-31T06:36:27.971Z,6
2018-12-31T06:37:30.013Z,6
2018-12-31T06:38:32.079Z,6
2018-12-31T06:39:34.407Z,6
2018-12-31T06:40:36.470Z,6
2018-12-31T06:41:38.514Z,6
2018-12-31T06:42:40.558Z,6.1
2018-12-31T06:43:42.619Z,6
2018-12-31T06:44:44.653Z,6
2018-12-31T06:45:46.736Z,6
2018-12-31T06:46:48.864Z,6
2018-12-31T06:47:50.920Z,6.1
2018-12-31T06:48:52.961Z,6
2018-12-31T06:49:55.012Z,6
2018-12-31T06:50:57.056Z,6.1
2018-12-31T06:51:59.485Z,6.1
2018-12-31T06:53:01.530Z,6.1
2018-12-31T06:54:03.585Z,6.1
2018-12-31T06:55:05.635Z,6.1
2018-12-31T06:56:07.679Z,6.1
2018-12-31T06:57:09.740Z,6.1
2018-12-31T06:58:12.073Z,6.1
2018-12-31T06:59:14.202Z,6.1
2018-12-31T07:00:16.632Z,6.1
2018-12-31T07:01:18.674Z,6.1
2018-12-31T07:02:20.739Z,6.1
2018-12-31T07:03:22.785Z,6.1
2018-12-31T07:04:24.817Z,6
2018-12-31T07:05:26.853Z,6
2018-12-31T07:06:29.249Z,6
2018-12-31T07:07:31.279Z,6
2018-12-31T07:08:33.327Z,6
2018-12-31T07:09:35.375Z,6.1
2018-12-31T07:10:37.437Z,6
2018-12-31T07:11:39.472Z,6
2018-12-31T07:12:41.523Z,6
2018-12-31T07:13:43.611Z,6
2018-12-31T07:14:45.933Z,6
2018-12-31T07:15:47.967Z,6
2018-12-31T07:16:50.017Z,6
2018-12-31T07:17:52.048Z,6
2018-12-31T07:18:54.097Z,6
2018-12-31T07:19:56.133Z,6
2018-12-31T07:20:58.182Z,6
2018-12-31T07:22:00.501Z,6
2018-12-31T07:23:02.844Z,6
2018-12-31T07:24:05.278Z,6
2018-12-31T07:25:07.301Z,6
2018-12-31T07:26:09.332Z,5.9
2018-12-31T07:27:11.388Z,6
2018-12-31T07:28:13.446Z,6
2018-12-31T07:29:15.500Z,5.9
2018-12-31T07:30:17.827Z,6
2018-12-31T07:31:20.157Z,6
2018-12-31T07:32:22.507Z,6
2018-12-31T07:33:24.550Z,6
2018-12-31T07:34:26.613Z,5.9
2018-12-31T07:35:28.663Z,5.9
2018-12-31T07:36:30.690Z,5.9
2018-12-31T07:37:32.741Z,6
2018-12-31T07:38:34.846Z,5.9
2018-12-31T07:39:36.946Z,5.9
2018-12-31T07:40:39.055Z,5.9
2018-12-31T07:41:41.097Z,6
2018-12-31T07:42:43.160Z,5.9
2018-12-31T07:43:45.221Z,5.9
2018-12-31T07:44:47.595Z,5.9
2018-12-31T07:45:50.025Z,5.9
2018-12-31T07:46:52.112Z,5.9
2018-12-31T07:47:54.165Z,5.9
2018-12-31T07:48:56.234Z,5.9
2018-12-31T07:49:58.549Z,5.9
2018-12-31T07:51:00.591Z,5.9
2018-12-31T07:52:03.580Z,5.9
2018-12-31T07:53:05.613Z,6
2018-12-31T07:54:08.041Z,6
2018-12-31T07:55:10.092Z,6
2018-12-31T07:56:12.140Z,6
2018-12-31T07:57:14.463Z,6
2018-12-31T07:58:16.520Z,6
2018-12-31T07:59:18.566Z,6
2018-12-31T08:00:20.912Z,6.1
2018-12-31T08:01:22.976Z,6.1
2018-12-31T08:02:25.002Z,6.1
2018-12-31T08:03:27.068Z,6
2018-12-31T08:04:29.402Z,6
2018-12-31T08:05:31.502Z,6
2018-12-31T08:06:33.831Z,6
2018-12-31T08:07:35.860Z,6
2018-12-31T08:08:38.225Z,6
2018-12-31T08:09:40.565Z,6
2018-12-31T08:10:42.611Z,6
2018-12-31T08:11:44.655Z,6
2018-12-31T08:12:46.690Z,6
2018-12-31T08:13:48.740Z,6
2018-12-31T08:14:50.779Z,6
2018-12-31T08:15:52.808Z,6
2018-12-31T08:16:54.873Z,6.1
2018-12-31T08:17:56.906Z,6
2018-12-31T08:18:58.970Z,6
2018-12-31T08:20:01.068Z,6
2018-12-31T08:21:03.133Z,6.1
2018-12-31T08:22:05.216Z,6.1
2018-12-31T08:23:07.350Z,6.1
2018-12-31T08:24:09.398Z,6.1
2018-12-31T08:25:11.804Z,6.1
2018-12-31T08:26:14.223Z,6.1
2018-12-31T08:27:16.260Z,6.1
2018-12-31T08:28:18.300Z,6.1
2018-12-31T08:29:20.372Z,6.1
2018-12-31T08:30:22.415Z,6.1
2018-12-31T08:31:24.834Z,6.1
2018-12-31T08:32:26.876Z,6.1
2018-12-31T08:33:28.914Z,6.1
2018-12-31T08:34:30.963Z,6.1
2018-12-31T08:35:33.017Z,6.1
2018-12-31T08:36:35.069Z,6.2
2018-12-31T08:37:37.108Z,6.2
2018-12-31T08:38:39.141Z,6.1
2018-12-31T08:39:41.470Z,6.2
2018-12-31T08:40:43.898Z,6.2
2018-12-31T08:41:46.317Z,6.2
2018-12-31T08:42:48.353Z,6.2
2018-12-31T08:43:50.410Z,6.2
2018-12-31T08:44:52.463Z,6.2
2018-12-31T08:45:54.497Z,6.3
2018-12-31T08:46:56.547Z,6.2
2018-12-31T08:47:58.598Z,6.3
2018-12-31T08:49:00.662Z,6.2
2018-12-31T08:50:04.404Z,6.2
2018-12-31T08:51:06.468Z,6.2
2018-12-31T08:52:08.519Z,6.2
2018-12-31T08:53:10.595Z,6.3
2018-12-31T08:54:12.963Z,6.3
2018-12-31T08:55:15.332Z,6.2
2018-12-31T08:56:17.404Z,6.3
2018-12-31T08:57:19.546Z,6.3
2018-12-31T08:58:21.601Z,6.3
2018-12-31T08:59:24.035Z,6.3
2018-12-31T09:00:26.114Z,6.3
2018-12-31T09:01:28.177Z,6.3
2018-12-31T09:02:30.224Z,6.3
2018-12-31T09:03:32.282Z,6.3
2018-12-31T09:04:34.618Z,6.4
2018-12-31T09:05:36.655Z,6.4
2018-12-31T09:06:38.722Z,6.5
2018-12-31T09:07:41.101Z,6.5
2018-12-31T09:08:43.521Z,6.4
2018-12-31T09:09:45.590Z,6.4
2018-12-31T09:10:47.643Z,6.5
2018-12-31T09:11:49.712Z,6.4
2018-12-31T09:12:51.821Z,6.4
2018-12-31T09:13:53.853Z,6.4
2018-12-31T09:14:55.902Z,6.4
2018-12-31T09:15:57.952Z,6.4
2018-12-31T09:17:00.007Z,6.3
2018-12-31T09:18:02.077Z,6.3
2018-12-31T09:19:04.146Z,6.3
2018-12-31T09:20:06.507Z,6.3
2018-12-31T09:21:08.941Z,6.3
2018-12-31T09:22:11.031Z,6.3
2018-12-31T09:23:13.133Z,6.3
2018-12-31T09:24:15.199Z,6.4
2018-12-31T09:25:17.657Z,6.4
2018-12-31T09:26:20.256Z,6.4
2018-12-31T09:27:22.302Z,6.3
2018-12-31T09:28:24.368Z,6.4
2018-12-31T09:29:26.466Z,6.4
2018-12-31T09:30:28.526Z,6.4
2018-12-31T09:31:30.569Z,6.5
2018-12-31T09:32:32.619Z,6.4
2018-12-31T09:33:34.693Z,6.5
2018-12-31T09:34:36.751Z,6.6
2018-12-31T09:35:38.802Z,6.5
2018-12-31T09:36:41.248Z,6.5
2018-12-31T09:37:43.306Z,6.6
2018-12-31T09:38:46.007Z,6.5
2018-12-31T09:39:48.059Z,6.4
2018-12-31T09:40:50.120Z,6.4
2018-12-31T09:41:54.022Z,6.4
2018-12-31T09:42:56.083Z,6.4
2018-12-31T09:43:58.153Z,6.5
2018-12-31T09:45:00.246Z,6.4
2018-12-31T09:46:02.700Z,6.4
2018-12-31T09:47:04.734Z,6.5
2018-12-31T09:48:06.785Z,6.6
2018-12-31T09:49:08.912Z,6.6
2018-12-31T09:50:10.956Z,6.7
2018-12-31T09:51:13.074Z,6.7
2018-12-31T09:52:15.136Z,6.7
2018-12-31T09:53:17.198Z,6.6
2018-12-31T09:54:19.265Z,6.7
2018-12-31T09:55:21.584Z,6.6
2018-12-31T09:56:24.224Z,6.6
2018-12-31T09:57:26.288Z,6.7
2018-12-31T09:58:28.376Z,6.6
2018-12-31T09:59:30.437Z,6.6
2018-12-31T10:00:32.489Z,6.7
2018-12-31T10:01:34.557Z,6.7
2018-12-31T10:02:36.635Z,6.8
2018-12-31T10:03:39.061Z,6.8
2018-12-31T10:04:41.396Z,6.9
2018-12-31T10:05:43.527Z,6.9
2018-12-31T10:06:46.002Z,6.9
2018-12-31T10:07:48.058Z,6.8
2018-12-31T10:08:50.907Z,6.8
2018-12-31T10:09:52.953Z,6.8
2018-12-31T10:10:55.027Z,6.8
2018-12-31T10:11:57.064Z,6.8
2018-12-31T10:12:59.108Z,6.8
2018-12-31T10:14:01.178Z,6.8
2018-12-31T10:15:03.529Z,6.8
2018-12-31T10:16:05.887Z,6.7
2018-12-31T10:17:07.926Z,6.8
2018-12-31T10:18:09.998Z,6.8
2018-12-31T10:19:12.326Z,6.8
2018-12-31T10:20:14.463Z,6.8
2018-12-31T10:21:17.835Z,6.8
2018-12-31T10:22:19.885Z,6.8
2018-12-31T10:23:21.942Z,6.9
2018-12-31T10:24:24.284Z,6.9
2018-12-31T10:25:26.352Z,6.9
2018-12-31T10:26:28.399Z,6.9
2018-12-31T10:27:30.442Z,6.9
2018-12-31T10:28:32.486Z,6.9
2018-12-31T10:29:37.375Z,7
2018-12-31T10:30:39.705Z,6.9
2018-12-31T10:31:41.758Z,6.9
2018-12-31T10:32:43.803Z,6.9
2018-12-31T10:33:45.853Z,6.9
2018-12-31T10:34:47.907Z,6.8
2018-12-31T10:35:49.973Z,6.9
2018-12-31T10:36:52.035Z,6.9
2018-12-31T10:37:54.093Z,6.8
2018-12-31T10:38:56.130Z,6.8
2018-12-31T10:39:58.188Z,6.8
2018-12-31T10:41:00.527Z,6.8
2018-12-31T10:42:02.592Z,6.9
2018-12-31T10:43:05.032Z,6.8
2018-12-31T10:44:07.386Z,6.9
2018-12-31T10:45:09.432Z,6.9
2018-12-31T10:46:11.488Z,6.8
2018-12-31T10:47:13.561Z,6.9
2018-12-31T10:48:15.622Z,6.9
2018-12-31T10:49:17.690Z,6.9
2018-12-31T10:50:19.713Z,6.9
2018-12-31T10:51:21.768Z,6.9
2018-12-31T10:52:23.839Z,6.9
2018-12-31T10:53:26.280Z,6.9
2018-12-31T10:54:28.330Z,7
2018-12-31T10:55:30.414Z,6.9
2018-12-31T10:56:32.468Z,7
2018-12-31T10:57:34.506Z,7.1
2018-12-31T10:58:36.593Z,7.1
2018-12-31T10:59:38.624Z,7.1
2018-12-31T11:00:40.954Z,7.1
2018-12-31T11:01:42.996Z,7.1
2018-12-31T11:02:45.052Z,7.1
2018-12-31T11:03:47.076Z,7.2
2018-12-31T11:04:49.116Z,7.2
2018-12-31T11:05:51.172Z,7.3
2018-12-31T11:06:53.611Z,7.2
2018-12-31T11:07:55.746Z,7.2
2018-12-31T11:08:58.096Z,7.2
2018-12-31T11:10:00.400Z,7.3
2018-12-31T11:11:02.539Z,7.3
2018-12-31T11:12:04.586Z,7.3
2018-12-31T11:13:06.636Z,7.3
2018-12-31T11:14:08.686Z,7.3
2018-12-31T11:15:11.294Z,7.3
2018-12-31T11:16:13.454Z,7.3
2018-12-31T11:17:15.510Z,7.3
2018-12-31T11:18:17.994Z,7.2
2018-12-31T11:19:20.073Z,7.2
2018-12-31T11:20:22.252Z,7.2
2018-12-31T11:21:24.344Z,7.1
2018-12-31T11:22:26.389Z,7.2
2018-12-31T11:23:28.436Z,7.2
2018-12-31T11:24:30.483Z,7.2
2018-12-31T11:25:32.615Z,7.2
2018-12-31T11:26:34.660Z,7.2
2018-12-31T11:27:36.701Z,7.2
2018-12-31T11:28:38.758Z,7.2
2018-12-31T11:29:40.811Z,7.2
2018-12-31T11:30:42.913Z,7.2
2018-12-31T11:31:44.965Z,7.2
2018-12-31T11:32:47.026Z,7.2
2018-12-31T11:33:49.077Z,7.2
2018-12-31T11:34:51.118Z,7.1
2018-12-31T11:35:53.159Z,7.1
2018-12-31T11:36:55.490Z,7.2
2018-12-31T11:37:57.536Z,7.1
2018-12-31T11:38:59.586Z,7.1
2018-12-31T11:40:01.631Z,7.2
2018-12-31T11:41:03.682Z,7.2
2018-12-31T11:42:05.729Z,7.1
2018-12-31T11:43:07.775Z,7.1
2018-12-31T11:44:09.821Z,7.1
2018-12-31T11:45:11.866Z,7.1
2018-12-31T11:46:14.314Z,7.1
2018-12-31T11:47:16.370Z,7.2
2018-12-31T11:48:18.425Z,7.2
2018-12-31T11:49:20.734Z,7.2
2018-12-31T11:50:22.793Z,7.2
2018-12-31T11:51:25.110Z,7.2
2018-12-31T11:52:27.155Z,7.2
2018-12-31T11:53:29.192Z,7.2
2018-12-31T11:54:31.517Z,7.2
2018-12-31T11:55:33.552Z,7.2
2018-12-31T11:56:35.583Z,7.2
2018-12-31T11:57:37.886Z,7.1
2018-12-31T11:58:39.945Z,7.1
2018-12-31T11:59:41.988Z,7.2
2018-12-31T12:00:44.040Z,7.2
2018-12-31T12:01:46.507Z,7.2
2018-12-31T12:02:48.579Z,7.2
2018-12-31T12:03:50.631Z,7.2
2018-12-31T12:04:52.701Z,7.2
2018-12-31T12:05:54.750Z,7.2
2018-12-31T12:06:57.075Z,7.2
2018-12-31T12:07:59.139Z,7.2
2018-12-31T12:09:01.206Z,7.2
2018-12-31T12:10:03.280Z,7.2
2018-12-31T12:11:05.406Z,7.2
2018-12-31T12:12:08.410Z,7.2
2018-12-31T12:13:11.374Z,7.2
2018-12-31T12:14:13.523Z,7.2
2018-12-31T12:15:15.626Z,7.2
2018-12-31T12:16:17.997Z,7.3
2018-12-31T12:17:20.055Z,7.2
2018-12-31T12:18:22.122Z,7.2
2018-12-31T12:19:24.184Z,7.2
2018-12-31T12:20:26.283Z,7.2
2018-12-31T12:21:28.638Z,7.2
2018-12-31T12:22:30.708Z,7.2
2018-12-31T12:23:33.133Z,7.2
2018-12-31T12:24:35.918Z,7.3
2018-12-31T12:25:38.198Z,7.2
2018-12-31T12:26:41.169Z,7.2
2018-12-31T12:27:43.638Z,7.2
2018-12-31T12:28:45.696Z,7.2
2018-12-31T12:29:47.777Z,7.2
2018-12-31T12:30:49.851Z,7.3
2018-12-31T12:31:51.948Z,7.3
2018-12-31T12:32:54.042Z,7.3
2018-12-31T12:33:56.132Z,7.3
2018-12-31T12:34:58.173Z,7.3
2018-12-31T12:36:00.239Z,7.2
2018-12-31T12:37:02.406Z,7.2
2018-12-31T12:38:05.423Z,7.3
2018-12-31T12:39:08.397Z,7.3
2018-12-31T12:40:10.479Z,7.3
2018-12-31T12:41:12.554Z,7.3
2018-12-31T12:42:14.638Z,7.3
2018-12-31T12:43:16.761Z,7.3
2018-12-31T12:44:18.841Z,7.3
2018-12-31T12:45:20.920Z,7.4
2018-12-31T12:46:22.997Z,7.3
2018-12-31T12:47:25.084Z,7.4
2018-12-31T12:48:27.558Z,7.4
2018-12-31T12:49:30.239Z,7.3
2018-12-31T12:50:32.884Z,7.3
2018-12-31T12:51:35.195Z,7.3
2018-12-31T12:52:38.192Z,7.4
2018-12-31T12:53:40.299Z,7.5
2018-12-31T12:54:42.397Z,7.4
2018-12-31T12:55:44.493Z,7.4
2018-12-31T12:56:46.560Z,7.4
2018-12-31T12:57:48.626Z,7.4
2018-12-31T12:58:50.986Z,7.4
2018-12-31T12:59:53.090Z,7.5
2018-12-31T13:00:55.167Z,7.5
2018-12-31T13:01:57.256Z,7.5
2018-12-31T13:02:59.605Z,7.4
2018-12-31T13:04:02.543Z,7.4
2018-12-31T13:05:05.533Z,7.4
2018-12-31T13:06:07.614Z,7.4
2018-12-31T13:07:09.704Z,7.5
2018-12-31T13:08:11.768Z,7.5
2018-12-31T13:09:13.833Z,7.5
2018-12-31T13:10:15.903Z,7.5
2018-12-31T13:11:17.979Z,7.4
2018-12-31T13:12:20.370Z,7.4
2018-12-31T13:13:22.441Z,7.4
2018-12-31T13:14:24.809Z,7.4
2018-12-31T13:15:26.898Z,7.4
2018-12-31T13:16:29.337Z,7.5
2018-12-31T13:17:31.880Z,7.5
2018-12-31T13:18:35.390Z,7.5
2018-12-31T13:19:37.874Z,7.5
2018-12-31T13:20:39.929Z,7.5
2018-12-31T13:21:42.282Z,7.5
2018-12-31T13:22:44.353Z,7.5
2018-12-31T13:23:46.443Z,7.5
2018-12-31T13:24:48.529Z,7.5
2018-12-31T13:25:50.595Z,7.5
2018-12-31T13:26:52.667Z,7.5
2018-12-31T13:27:54.792Z,7.5
2018-12-31T13:28:57.220Z,7.5
2018-12-31T13:30:00.175Z,7.5
2018-12-31T13:31:02.601Z,7.5
2018-12-31T13:32:04.753Z,7.5
2018-12-31T13:33:07.502Z,7.5
2018-12-31T13:34:09.590Z,7.5
2018-12-31T13:35:11.669Z,7.6
2018-12-31T13:36:13.736Z,7.6
2018-12-31T13:37:15.825Z,7.6
2018-12-31T13:38:17.891Z,7.6
2018-12-31T13:39:19.948Z,7.6
2018-12-31T13:40:22.025Z,7.6
2018-12-31T13:41:24.090Z,7.6
2018-12-31T13:42:26.753Z,7.6
2018-12-31T13:43:29.100Z,7.6
2018-12-31T13:44:31.878Z,7.6
2018-12-31T13:45:33.948Z,7.6
2018-12-31T13:46:36.009Z,7.6
2018-12-31T13:47:38.075Z,7.6
2018-12-31T13:48:40.161Z,7.6
2018-12-31T13:49:42.508Z,7.6
2018-12-31T13:50:44.570Z,7.6
2018-12-31T13:51:46.659Z,7.6
2018-12-31T13:52:48.756Z,7.6
2018-12-31T13:53:50.843Z,7.6
2018-12-31T13:54:52.918Z,7.6
2018-12-31T13:55:56.022Z,7.6
2018-12-31T13:56:58.732Z,7.6
2018-12-31T13:58:00.855Z,7.6
2018-12-31T13:59:04.923Z,7.6
2018-12-31T14:00:07.038Z,7.6
2018-12-31T14:01:09.111Z,7.6
2018-12-31T14:02:11.190Z,7.6
2018-12-31T14:03:21.333Z,7.6
2018-12-31T14:04:23.550Z,7.7
2018-12-31T14:05:25.650Z,7.7
2018-12-31T14:06:27.822Z,7.7
2018-12-31T14:07:29.905Z,7.7
2018-12-31T14:08:32.000Z,7.7
2018-12-31T14:09:34.154Z,7.7
2018-12-31T14:10:36.751Z,7.7
2018-12-31T14:11:39.279Z,7.7
2018-12-31T14:12:42.051Z,7.7
2018-12-31T14:13:44.155Z,7.7
2018-12-31T14:14:46.246Z,7.7
2018-12-31T14:15:48.345Z,7.8
2018-12-31T14:16:50.405Z,7.7
2018-12-31T14:17:52.496Z,7.7
2018-12-31T14:18:54.562Z,7.8
2018-12-31T14:19:56.676Z,7.8
2018-12-31T14:20:58.742Z,7.8
2018-12-31T14:22:00.841Z,7.8
2018-12-31T14:23:02.925Z,7.8
2018-12-31T14:24:05.916Z,7.8
2018-12-31T14:25:08.523Z,7.8
2018-12-31T14:26:10.586Z,7.8
2018-12-31T14:27:12.654Z,7.8